Nearby METAR Reports

 

KBVO - Bartlesville, Oklahoma, USA
Distance from station: WNW 10mi, 16km
Updated: Thu, 26-May-2022 8:53pm CDT
Clear
Clear
 Wind from calm
Wind: Calm
Temperature: 55°F , 13°C
Dew Point: 54°F , 12°C
Humidity: 94%
Barometer: 29.95 inHg , 1014.2 hPa
Clouds: Clear
Visibility: 10 miles , 16 km
2022/05/27 01:53 KBVO 270153Z AUTO 00000KT 10SM CLR 13/12 A2995 RMK AO2 SLP137 T01280117
KCFV - Coffeyville, Kansas, USA
Distance from station: NNE 31mi, 49km
Updated: Thu, 26-May-2022 8:52pm CDT
Overcast
Overcast
 Wind from NW
Wind: NW 10 mph , 17 km/h
Temperature: 61°F , 16°C
Dew Point: 54°F , 12°C
Humidity: 77%
Barometer: 29.92 inHg , 1013.2 hPa
Clouds: Overcast
Visibility: 10 miles , 16 km
Cloud details: Overcast 2600 ft
2022/05/27 01:52 KCFV 270152Z AUTO 32009KT 10SM OVC026 16/12 A2992 RMK AO2 SLP130 T01560117
 
KIDP - Independence, Kansas, USA
Distance from station: N 32mi, 52km
Updated: Thu, 26-May-2022 8:55pm CDT
Clear
Clear
 Wind from NNW
Wind: NNW 5 mph , 7 km/h
Temperature: 57°F , 14°C
Dew Point: 54°F , 12°C
Humidity: 88%
Barometer: 29.94 inHg , 1013.9 hPa
Clouds: Clear
Visibility: 10 miles , 16 km
2022/05/27 01:55 KIDP 270155Z AUTO 33004KT 10SM CLR 14/12 A2994 RMK AO2 T01380118
KGCM - Claremore, Oklahoma, USA
Distance from station: SE 35mi, 56km
Updated: Thu, 26-May-2022 8:55pm CDT
Overcast
Overcast
 Wind from calm
Wind: Calm
Temperature: 59°F , 15°C
Dew Point: 52°F , 11°C
Humidity: 77%
Barometer: 29.96 inHg , 1014.6 hPa
Clouds: Overcast
Visibility: 10 miles , 16 km
Cloud details: Overcast 2600 ft
2022/05/27 01:55 KGCM 270155Z AUTO 00000KT 10SM OVC026 15/11 A2996 RMK AO2
 
KTUL - Tulsa, Oklahoma, USA
Distance from station: S 35mi, 56km
Updated: Thu, 26-May-2022 8:53pm CDT
Clear
Clear
 Wind from NNW
Wind: NNW 5 mph , 7 km/h
Temperature: 57°F , 14°C
Dew Point: 54°F , 12°C
Humidity: 88%
Barometer: 29.94 inHg , 1013.9 hPa
Clouds: Clear
Visibility: 10 miles , 16 km
2022/05/27 01:53 KTUL 270153Z 33004KT 10SM CLR 14/12 A2994 RMK AO2 SLP137 T01390117
KRVS - Tulsa, Oklahoma, USA
Distance from station: S 46mi, 74km
Updated: Thu, 26-May-2022 8:53pm CDT
Clear
Clear
 Wind from calm
Wind: Calm
Temperature: 57°F , 14°C
Dew Point: 55°F , 13°C
Humidity: 94%
Barometer: 29.95 inHg , 1014.2 hPa
Clouds: Clear
Visibility: 10 miles , 16 km
2022/05/27 01:53 KRVS 270153Z 00000KT 10SM CLR 14/13 A2995 RMK AO2 SLP149 T01390128
 
KPPF - Parsons, Kansas, USA
Distance from station: NNE 48mi, 76km
Updated: Thu, 26-May-2022 8:52pm CDT
Overcast
Overcast
 Wind from NW
Wind: NW 8 mph , 13 km/h
Temperature: 61°F , 16°C
Dew Point: 52°F , 11°C
Humidity: 72%
Barometer: 29.94 inHg , 1013.9 hPa
Clouds: Overcast
Visibility: 10 miles , 16 km
Cloud details: Overcast 2400 ft
2022/05/27 01:52 KPPF 270152Z AUTO 32007KT 10SM OVC024 16/11 A2994 RMK AO2 SLP133 T01560106
KGMJ - Grove, Oklahoma, USA
Distance from station: E 63mi, 101km
Updated: Thu, 26-May-2022 8:55pm CDT

 
2022/05/27 01:55 KGMJ 270155Z AUTO RMK AO2 PWINO PNO TSNO
 
KPNC - Ponca City, Oklahoma, USA
Distance from station: W 69mi, 111km
Updated: Thu, 26-May-2022 8:53pm CDT
Clear
Clear
 Wind from calm
Wind: Calm
Temperature: 63°F , 17°C
Dew Point: 54°F , 12°C
Humidity: 73%
Barometer: 29.94 inHg , 1013.9 hPa
Clouds: Clear
Visibility: 10 miles , 16 km
2022/05/27 01:53 KPNC 270153Z AUTO 00000KT 10SM CLR 17/12 A2994 RMK AO2 SLP135 T01670122
KCNU - Chanute, Kansas, USA
Distance from station: NNE 69mi, 112km
Updated: Thu, 26-May-2022 8:52pm CDT
Overcast
Overcast
 Wind from NNW
Wind: NNW 8 mph , 13 km/h
Temperature: 61°F , 16°C
Dew Point: 52°F , 11°C
Humidity: 72%
Barometer: 29.92 inHg , 1013.2 hPa
Clouds: Overcast
Visibility: 10 miles , 16 km
Cloud details: Overcast 2600 ft
2022/05/27 01:52 KCNU 270152Z AUTO 33007KT 10SM OVC026 16/11 A2992 RMK AO2 SLP128 T01560106